sensor_id;sensor_type;location;lat;lon;timestamp;temperature;humidity
35970;DHT22;22448;51.298;6.430;2022-11-04T00:01:42;9.90;99.90
35970;DHT22;22448;51.298;6.430;2022-11-04T00:04:11;9.90;99.90
35970;DHT22;22448;51.298;6.430;2022-11-04T00:06:39;9.90;99.90
35970;DHT22;22448;51.298;6.430;2022-11-04T00:09:10;9.90;99.90
35970;DHT22;22448;51.298;6.430;2022-11-04T00:11:37;9.90;99.90
35970;DHT22;22448;51.298;6.430;2022-11-04T00:14:23;10.00;99.90
35970;DHT22;22448;51.298;6.430;2022-11-04T00:16:50;10.00;99.90
35970;DHT22;22448;51.298;6.430;2022-11-04T00:19:35;10.00;99.90
35970;DHT22;22448;51.298;6.430;2022-11-04T00:22:21;10.00;99.90
35970;DHT22;22448;51.298;6.430;2022-11-04T00:25:08;10.00;99.90
35970;DHT22;22448;51.298;6.430;2022-11-04T00:31:07;10.00;99.90
35970;DHT22;22448;51.298;6.430;2022-11-04T00:33:55;10.00;99.90
35970;DHT22;22448;51.298;6.430;2022-11-04T00:36:23;10.00;99.90
35970;DHT22;22448;51.298;6.430;2022-11-04T00:38:50;10.00;99.90
35970;DHT22;22448;51.298;6.430;2022-11-04T00:41:18;10.00;99.90
35970;DHT22;22448;51.298;6.430;2022-11-04T00:44:02;10.00;99.90
35970;DHT22;22448;51.298;6.430;2022-11-04T00:46:32;10.00;99.90
35970;DHT22;22448;51.298;6.430;2022-11-04T00:48:59;10.00;99.90
35970;DHT22;22448;51.298;6.430;2022-11-04T00:51:26;10.00;99.90
35970;DHT22;22448;51.298;6.430;2022-11-04T00:53:53;10.00;99.90
35970;DHT22;22448;51.298;6.430;2022-11-04T00:56:21;10.00;99.90
35970;DHT22;22448;51.298;6.430;2022-11-04T00:58:48;10.00;99.90
35970;DHT22;22448;51.298;6.430;2022-11-04T01:01:17;10.00;99.90
35970;DHT22;22448;51.298;6.430;2022-11-04T01:03:47;10.00;99.90
35970;DHT22;22448;51.298;6.430;2022-11-04T01:06:15;9.90;99.90
35970;DHT22;22448;51.298;6.430;2022-11-04T01:08:42;9.90;99.90
35970;DHT22;22448;51.298;6.430;2022-11-04T01:11:10;9.80;99.90
35970;DHT22;22448;51.298;6.430;2022-11-04T01:13:38;9.80;99.90
35970;DHT22;22448;51.298;6.430;2022-11-04T01:16:07;9.80;99.90
35970;DHT22;22448;51.298;6.430;2022-11-04T01:18:35;9.70;99.90
35970;DHT22;22448;51.298;6.430;2022-11-04T01:21:04;9.60;99.90
35970;DHT22;22448;51.298;6.430;2022-11-04T01:23:31;9.60;99.90
35970;DHT22;22448;51.298;6.430;2022-11-04T01:25:59;9.60;99.90
35970;DHT22;22448;51.298;6.430;2022-11-04T01:28:26;9.50;99.90
35970;DHT22;22448;51.298;6.430;2022-11-04T01:30:53;9.50;99.90
35970;DHT22;22448;51.298;6.430;2022-11-04T01:33:20;9.40;99.90
35970;DHT22;22448;51.298;6.430;2022-11-04T01:35:47;9.40;99.90
35970;DHT22;22448;51.298;6.430;2022-11-04T01:38:14;9.30;99.90
35970;DHT22;22448;51.298;6.430;2022-11-04T01:40:41;9.30;99.90
35970;DHT22;22448;51.298;6.430;2022-11-04T01:43:15;9.30;99.90
35970;DHT22;22448;51.298;6.430;2022-11-04T01:45:53;9.20;99.90
35970;DHT22;22448;51.298;6.430;2022-11-04T01:48:27;9.20;99.90
35970;DHT22;22448;51.298;6.430;2022-11-04T01:50:55;9.10;99.90
35970;DHT22;22448;51.298;6.430;2022-11-04T01:53:33;9.10;99.90
35970;DHT22;22448;51.298;6.430;2022-11-04T01:56:04;9.10;99.90
35970;DHT22;22448;51.298;6.430;2022-11-04T01:58:48;9.00;99.90
35970;DHT22;22448;51.298;6.430;2022-11-04T02:01:17;9.00;99.90
35970;DHT22;22448;51.298;6.430;2022-11-04T02:03:50;9.00;99.90
35970;DHT22;22448;51.298;6.430;2022-11-04T02:06:18;9.00;99.90
35970;DHT22;22448;51.298;6.430;2022-11-04T02:08:47;9.00;99.90
35970;DHT22;22448;51.298;6.430;2022-11-04T02:11:15;9.00;99.90
35970;DHT22;22448;51.298;6.430;2022-11-04T02:14:02;9.00;99.90
35970;DHT22;22448;51.298;6.430;2022-11-04T02:16:39;8.90;99.90
35970;DHT22;22448;51.298;6.430;2022-11-04T02:24:56;8.90;99.90
35970;DHT22;22448;51.298;6.430;2022-11-04T02:30:16;8.70;99.90
35970;DHT22;22448;51.298;6.430;2022-11-04T02:33:09;8.70;99.90
35970;DHT22;22448;51.298;6.430;2022-11-04T02:36:08;8.70;99.90
35970;DHT22;22448;51.298;6.430;2022-11-04T02:41:35;8.60;99.90
35970;DHT22;22448;51.298;6.430;2022-11-04T02:44:10;8.60;99.90
35970;DHT22;22448;51.298;6.430;2022-11-04T02:46:49;8.50;99.90
35970;DHT22;22448;51.298;6.430;2022-11-04T02:49:24;8.50;99.90
35970;DHT22;22448;51.298;6.430;2022-11-04T02:52:01;8.50;99.90
35970;DHT22;22448;51.298;6.430;2022-11-04T02:57:06;8.40;99.90
35970;DHT22;22448;51.298;6.430;2022-11-04T02:59:39;8.30;99.90
35970;DHT22;22448;51.298;6.430;2022-11-04T03:02:11;8.30;99.90
35970;DHT22;22448;51.298;6.430;2022-11-04T03:04:43;8.20;99.90
35970;DHT22;22448;51.298;6.430;2022-11-04T03:07:14;8.20;99.90
35970;DHT22;22448;51.298;6.430;2022-11-04T03:09:48;8.20;99.90
35970;DHT22;22448;51.298;6.430;2022-11-04T03:12:19;8.10;99.90
35970;DHT22;22448;51.298;6.430;2022-11-04T03:14:52;8.10;99.90
35970;DHT22;22448;51.298;6.430;2022-11-04T03:17:35;8.00;99.90
35970;DHT22;22448;51.298;6.430;2022-11-04T03:20:11;8.00;99.90
35970;DHT22;22448;51.298;6.430;2022-11-04T03:22:40;8.00;99.90
35970;DHT22;22448;51.298;6.430;2022-11-04T03:25:08;7.90;99.90
35970;DHT22;22448;51.298;6.430;2022-11-04T03:30:24;7.90;99.90
35970;DHT22;22448;51.298;6.430;2022-11-04T03:33:05;7.90;99.90
35970;DHT22;22448;51.298;6.430;2022-11-04T03:35:34;8.00;99.90
35970;DHT22;22448;51.298;6.430;2022-11-04T03:38:01;8.00;99.90
35970;DHT22;22448;51.298;6.430;2022-11-04T03:40:28;8.10;99.90
35970;DHT22;22448;51.298;6.430;2022-11-04T03:42:58;8.10;99.90
35970;DHT22;22448;51.298;6.430;2022-11-04T03:45:26;8.20;99.90
35970;DHT22;22448;51.298;6.430;2022-11-04T03:47:54;8.20;99.90
35970;DHT22;22448;51.298;6.430;2022-11-04T03:50:38;8.20;99.90
35970;DHT22;22448;51.298;6.430;2022-11-04T03:53:05;8.30;99.90
35970;DHT22;22448;51.298;6.430;2022-11-04T04:01:49;8.20;99.90
35970;DHT22;22448;51.298;6.430;2022-11-04T04:04:41;8.20;99.90
35970;DHT22;22448;51.298;6.430;2022-11-04T04:07:15;8.20;99.90
35970;DHT22;22448;51.298;6.430;2022-11-04T04:09:51;8.20;99.90
35970;DHT22;22448;51.298;6.430;2022-11-04T04:12:36;8.10;99.90
35970;DHT22;22448;51.298;6.430;2022-11-04T04:15:07;8.10;99.90
35970;DHT22;22448;51.298;6.430;2022-11-04T04:17:41;8.00;99.90
35970;DHT22;22448;51.298;6.430;2022-11-04T04:20:11;8.00;99.90
35970;DHT22;22448;51.298;6.430;2022-11-04T04:22:44;7.90;99.90
35970;DHT22;22448;51.298;6.430;2022-11-04T04:25:15;7.90;99.90
35970;DHT22;22448;51.298;6.430;2022-11-04T04:28:02;7.80;99.90
35970;DHT22;22448;51.298;6.430;2022-11-04T04:30:30;7.80;99.90
35970;DHT22;22448;51.298;6.430;2022-11-04T04:33:03;7.80;99.90
35970;DHT22;22448;51.298;6.430;2022-11-04T04:35:46;7.80;99.90
35970;DHT22;22448;51.298;6.430;2022-11-04T04:38:21;7.70;99.90
35970;DHT22;22448;51.298;6.430;2022-11-04T04:41:34;7.70;99.90
35970;DHT22;22448;51.298;6.430;2022-11-04T04:44:25;7.60;99.90
35970;DHT22;22448;51.298;6.430;2022-11-04T04:47:17;7.60;99.90
35970;DHT22;22448;51.298;6.430;2022-11-04T04:49:56;7.50;99.90
35970;DHT22;22448;51.298;6.430;2022-11-04T04:53:11;7.50;99.90
35970;DHT22;22448;51.298;6.430;2022-11-04T04:55:19;7.50;99.90
35970;DHT22;22448;51.298;6.430;2022-11-04T04:57:46;7.40;99.90
35970;DHT22;22448;51.298;6.430;2022-11-04T05:00:16;7.30;99.90
35970;DHT22;22448;51.298;6.430;2022-11-04T05:02:44;7.30;99.90
35970;DHT22;22448;51.298;6.430;2022-11-04T05:05:12;7.30;99.90
35970;DHT22;22448;51.298;6.430;2022-11-04T05:07:44;7.20;99.90
35970;DHT22;22448;51.298;6.430;2022-11-04T05:10:13;7.20;99.90
35970;DHT22;22448;51.298;6.430;2022-11-04T05:12:40;7.10;99.90
35970;DHT22;22448;51.298;6.430;2022-11-04T05:15:28;7.10;99.90
35970;DHT22;22448;51.298;6.430;2022-11-04T05:17:56;7.00;99.90
35970;DHT22;22448;51.298;6.430;2022-11-04T05:20:24;7.00;99.90
35970;DHT22;22448;51.298;6.430;2022-11-04T05:22:51;6.90;99.90
35970;DHT22;22448;51.298;6.430;2022-11-04T05:25:18;7.00;99.90
35970;DHT22;22448;51.298;6.430;2022-11-04T05:27:45;7.00;99.90
35970;DHT22;22448;51.298;6.430;2022-11-04T05:30:12;7.10;99.90
35970;DHT22;22448;51.298;6.430;2022-11-04T05:32:39;7.10;99.90
35970;DHT22;22448;51.298;6.430;2022-11-04T05:35:06;7.10;99.90
35970;DHT22;22448;51.298;6.430;2022-11-04T05:37:33;7.10;99.90
35970;DHT22;22448;51.298;6.430;2022-11-04T05:40:00;7.10;99.90
35970;DHT22;22448;51.298;6.430;2022-11-04T05:42:27;7.10;99.90
35970;DHT22;22448;51.298;6.430;2022-11-04T05:44:55;7.10;99.90
35970;DHT22;22448;51.298;6.430;2022-11-04T05:47:22;7.10;99.90
35970;DHT22;22448;51.298;6.430;2022-11-04T05:49:49;7.10;99.90
35970;DHT22;22448;51.298;6.430;2022-11-04T05:52:16;7.10;99.90
35970;DHT22;22448;51.298;6.430;2022-11-04T05:54:43;7.20;99.90
35970;DHT22;22448;51.298;6.430;2022-11-04T05:57:09;7.30;99.90
35970;DHT22;22448;51.298;6.430;2022-11-04T05:59:36;7.30;99.90
35970;DHT22;22448;51.298;6.430;2022-11-04T06:02:03;7.30;99.90
35970;DHT22;22448;51.298;6.430;2022-11-04T06:04:31;7.40;99.90
35970;DHT22;22448;51.298;6.430;2022-11-04T06:06:58;7.40;99.90
35970;DHT22;22448;51.298;6.430;2022-11-04T06:09:24;7.50;99.90
35970;DHT22;22448;51.298;6.430;2022-11-04T06:12:08;7.50;99.90
35970;DHT22;22448;51.298;6.430;2022-11-04T06:14:36;7.50;99.90
35970;DHT22;22448;51.298;6.430;2022-11-04T06:17:03;7.60;99.90
35970;DHT22;22448;51.298;6.430;2022-11-04T06:19:30;7.60;99.90
35970;DHT22;22448;51.298;6.430;2022-11-04T06:21:58;7.60;99.90
35970;DHT22;22448;51.298;6.430;2022-11-04T06:24:25;7.70;99.90
35970;DHT22;22448;51.298;6.430;2022-11-04T06:26:52;7.70;99.90
35970;DHT22;22448;51.298;6.430;2022-11-04T06:29:19;7.70;99.90
35970;DHT22;22448;51.298;6.430;2022-11-04T06:31:46;7.80;99.90
35970;DHT22;22448;51.298;6.430;2022-11-04T06:34:13;7.80;99.90
35970;DHT22;22448;51.298;6.430;2022-11-04T06:36:40;7.80;99.90
35970;DHT22;22448;51.298;6.430;2022-11-04T06:39:08;7.90;99.90
35970;DHT22;22448;51.298;6.430;2022-11-04T06:41:35;7.90;99.90
35970;DHT22;22448;51.298;6.430;2022-11-04T06:44:02;7.90;99.90
35970;DHT22;22448;51.298;6.430;2022-11-04T06:49:06;7.90;99.90
35970;DHT22;22448;51.298;6.430;2022-11-04T06:51:33;7.90;99.90
35970;DHT22;22448;51.298;6.430;2022-11-04T06:54:00;7.90;99.90
35970;DHT22;22448;51.298;6.430;2022-11-04T06:56:27;8.00;99.90
35970;DHT22;22448;51.298;6.430;2022-11-04T06:58:54;8.00;99.90
35970;DHT22;22448;51.298;6.430;2022-11-04T07:01:24;8.00;99.90
35970;DHT22;22448;51.298;6.430;2022-11-04T07:03:54;8.00;99.90
35970;DHT22;22448;51.298;6.430;2022-11-04T07:06:21;8.00;99.90
35970;DHT22;22448;51.298;6.430;2022-11-04T07:08:49;8.10;99.90
35970;DHT22;22448;51.298;6.430;2022-11-04T07:11:18;8.10;99.90
35970;DHT22;22448;51.298;6.430;2022-11-04T07:13:47;8.20;99.90
35970;DHT22;22448;51.298;6.430;2022-11-04T07:16:15;8.20;99.90
35970;DHT22;22448;51.298;6.430;2022-11-04T07:18:42;8.30;99.90
35970;DHT22;22448;51.298;6.430;2022-11-04T07:21:10;8.30;99.90
35970;DHT22;22448;51.298;6.430;2022-11-04T07:23:37;8.40;99.90
35970;DHT22;22448;51.298;6.430;2022-11-04T07:26:06;8.40;99.90
35970;DHT22;22448;51.298;6.430;2022-11-04T07:28:34;8.40;99.90
35970;DHT22;22448;51.298;6.430;2022-11-04T07:31:02;8.40;99.90
35970;DHT22;22448;51.298;6.430;2022-11-04T07:33:30;8.40;99.90
35970;DHT22;22448;51.298;6.430;2022-11-04T07:36:05;8.40;99.90
35970;DHT22;22448;51.298;6.430;2022-11-04T07:38:32;8.50;99.90
35970;DHT22;22448;51.298;6.430;2022-11-04T07:41:00;8.50;99.90
35970;DHT22;22448;51.298;6.430;2022-11-04T07:43:28;8.50;99.90
35970;DHT22;22448;51.298;6.430;2022-11-04T07:46:08;8.40;99.90
35970;DHT22;22448;51.298;6.430;2022-11-04T07:48:36;8.40;99.90
35970;DHT22;22448;51.298;6.430;2022-11-04T07:51:05;8.40;99.90
35970;DHT22;22448;51.298;6.430;2022-11-04T07:53:33;8.40;99.90
35970;DHT22;22448;51.298;6.430;2022-11-04T07:56:07;8.40;99.90
35970;DHT22;22448;51.298;6.430;2022-11-04T07:58:34;8.40;99.90
35970;DHT22;22448;51.298;6.430;2022-11-04T08:01:04;8.40;99.90
35970;DHT22;22448;51.298;6.430;2022-11-04T08:03:32;8.40;99.90
35970;DHT22;22448;51.298;6.430;2022-11-04T08:06:00;8.50;99.90
35970;DHT22;22448;51.298;6.430;2022-11-04T08:08:28;8.60;99.90
35970;DHT22;22448;51.298;6.430;2022-11-04T08:11:02;8.60;99.90
35970;DHT22;22448;51.298;6.430;2022-11-04T08:13:30;8.70;99.90
35970;DHT22;22448;51.298;6.430;2022-11-04T08:16:06;8.70;99.90
35970;DHT22;22448;51.298;6.430;2022-11-04T08:18:35;8.80;99.90
35970;DHT22;22448;51.298;6.430;2022-11-04T08:21:03;8.80;99.90
35970;DHT22;22448;51.298;6.430;2022-11-04T08:23:31;8.90;99.90
35970;DHT22;22448;51.298;6.430;2022-11-04T08:25:59;8.90;99.90
35970;DHT22;22448;51.298;6.430;2022-11-04T08:28:27;9.00;99.90
35970;DHT22;22448;51.298;6.430;2022-11-04T08:31:04;9.20;99.90
35970;DHT22;22448;51.298;6.430;2022-11-04T08:33:33;9.30;99.90
35970;DHT22;22448;51.298;6.430;2022-11-04T08:36:20;9.50;99.90
35970;DHT22;22448;51.298;6.430;2022-11-04T08:38:48;9.60;99.90
35970;DHT22;22448;51.298;6.430;2022-11-04T08:41:29;9.50;99.90
35970;DHT22;22448;51.298;6.430;2022-11-04T08:43:57;9.40;99.90
35970;DHT22;22448;51.298;6.430;2022-11-04T08:46:27;9.40;99.90
35970;DHT22;22448;51.298;6.430;2022-11-04T08:48:55;9.40;99.90
35970;DHT22;22448;51.298;6.430;2022-11-04T08:51:24;9.40;99.90
35970;DHT22;22448;51.298;6.430;2022-11-04T08:53:52;9.40;99.90
35970;DHT22;22448;51.298;6.430;2022-11-04T08:56:21;9.30;99.90
35970;DHT22;22448;51.298;6.430;2022-11-04T08:58:49;9.40;99.90
35970;DHT22;22448;51.298;6.430;2022-11-04T09:01:17;9.40;99.90
35970;DHT22;22448;51.298;6.430;2022-11-04T09:03:45;9.50;99.90
35970;DHT22;22448;51.298;6.430;2022-11-04T09:06:16;9.60;99.90
35970;DHT22;22448;51.298;6.430;2022-11-04T09:08:43;9.70;99.90
35970;DHT22;22448;51.298;6.430;2022-11-04T09:11:11;9.90;99.90
35970;DHT22;22448;51.298;6.430;2022-11-04T09:13:39;9.90;99.90
35970;DHT22;22448;51.298;6.430;2022-11-04T09:16:07;10.00;99.90
35970;DHT22;22448;51.298;6.430;2022-11-04T09:18:35;10.10;99.90
35970;DHT22;22448;51.298;6.430;2022-11-04T09:21:04;10.10;99.90
35970;DHT22;22448;51.298;6.430;2022-11-04T09:23:31;10.20;99.90
35970;DHT22;22448;51.298;6.430;2022-11-04T09:26:08;10.40;99.90
35970;DHT22;22448;51.298;6.430;2022-11-04T09:28:35;10.40;99.90
35970;DHT22;22448;51.298;6.430;2022-11-04T09:31:14;10.50;99.90
35970;DHT22;22448;51.298;6.430;2022-11-04T09:33:42;10.50;99.90
35970;DHT22;22448;51.298;6.430;2022-11-04T09:36:09;10.50;99.90
35970;DHT22;22448;51.298;6.430;2022-11-04T09:38:38;10.50;99.90
35970;DHT22;22448;51.298;6.430;2022-11-04T09:44:03;10.30;99.90
35970;DHT22;22448;51.298;6.430;2022-11-04T09:46:35;10.30;99.90
35970;DHT22;22448;51.298;6.430;2022-11-04T09:49:06;10.30;99.90
35970;DHT22;22448;51.298;6.430;2022-11-04T09:51:35;10.30;99.90
35970;DHT22;22448;51.298;6.430;2022-11-04T09:54:32;10.40;99.90
35970;DHT22;22448;51.298;6.430;2022-11-04T09:57:00;10.40;99.90
35970;DHT22;22448;51.298;6.430;2022-11-04T09:59:32;10.50;99.90
35970;DHT22;22448;51.298;6.430;2022-11-04T10:10:23;11.00;99.90
35970;DHT22;22448;51.298;6.430;2022-11-04T10:15:37;11.10;99.90
35970;DHT22;22448;51.298;6.430;2022-11-04T10:24:06;11.20;99.90
35970;DHT22;22448;51.298;6.430;2022-11-04T10:29:18;11.70;99.90
35970;DHT22;22448;51.298;6.430;2022-11-04T10:31:47;11.90;99.90
35970;DHT22;22448;51.298;6.430;2022-11-04T10:34:27;12.10;99.90
35970;DHT22;22448;51.298;6.430;2022-11-04T10:36:55;12.30;99.90
35970;DHT22;22448;51.298;6.430;2022-11-04T10:39:27;12.30;99.90
35970;DHT22;22448;51.298;6.430;2022-11-04T10:41:55;12.30;99.90
35970;DHT22;22448;51.298;6.430;2022-11-04T10:44:33;12.40;99.90
35970;DHT22;22448;51.298;6.430;2022-11-04T10:50:23;12.60;99.90
35970;DHT22;22448;51.298;6.430;2022-11-04T10:53:16;12.70;99.90
35970;DHT22;22448;51.298;6.430;2022-11-04T10:58:40;13.00;99.90
35970;DHT22;22448;51.298;6.430;2022-11-04T11:01:24;13.10;99.90
35970;DHT22;22448;51.298;6.430;2022-11-04T11:03:51;13.20;99.90
35970;DHT22;22448;51.298;6.430;2022-11-04T11:06:31;13.10;99.90
35970;DHT22;22448;51.298;6.430;2022-11-04T11:11:50;13.10;99.90
35970;DHT22;22448;51.298;6.430;2022-11-04T11:16:54;13.00;99.90
35970;DHT22;22448;51.298;6.430;2022-11-04T11:19:23;13.00;99.90
35970;DHT22;22448;51.298;6.430;2022-11-04T11:21:53;12.90;99.90
35970;DHT22;22448;51.298;6.430;2022-11-04T11:24:25;12.90;99.90
35970;DHT22;22448;51.298;6.430;2022-11-04T11:26:55;12.90;99.90
35970;DHT22;22448;51.298;6.430;2022-11-04T11:29:30;12.90;99.90
35970;DHT22;22448;51.298;6.430;2022-11-04T11:32:22;12.90;99.90
35970;DHT22;22448;51.298;6.430;2022-11-04T11:34:53;13.00;99.90
35970;DHT22;22448;51.298;6.430;2022-11-04T11:40:34;13.00;99.90
35970;DHT22;22448;51.298;6.430;2022-11-04T11:43:27;12.80;99.90
35970;DHT22;22448;51.298;6.430;2022-11-04T11:45:55;12.80;99.90
35970;DHT22;22448;51.298;6.430;2022-11-04T11:48:30;12.70;99.90
35970;DHT22;22448;51.298;6.430;2022-11-04T11:50:58;12.60;99.90
35970;DHT22;22448;51.298;6.430;2022-11-04T11:53:27;12.50;99.90
35970;DHT22;22448;51.298;6.430;2022-11-04T11:56:30;12.40;99.90
35970;DHT22;22448;51.298;6.430;2022-11-04T12:04:56;12.20;99.90
35970;DHT22;22448;51.298;6.430;2022-11-04T12:10:53;12.20;99.90
35970;DHT22;22448;51.298;6.430;2022-11-04T12:13:28;12.20;99.90
35970;DHT22;22448;51.298;6.430;2022-11-04T12:16:23;12.10;99.90
35970;DHT22;22448;51.298;6.430;2022-11-04T12:21:48;12.20;99.90
35970;DHT22;22448;51.298;6.430;2022-11-04T12:24:48;12.20;99.90
35970;DHT22;22448;51.298;6.430;2022-11-04T12:30:21;12.30;99.90
35970;DHT22;22448;51.298;6.430;2022-11-04T12:33:31;12.30;99.90
35970;DHT22;22448;51.298;6.430;2022-11-04T12:38:50;12.30;99.90
35970;DHT22;22448;51.298;6.430;2022-11-04T12:42:06;12.40;99.90
35970;DHT22;22448;51.298;6.430;2022-11-04T12:47:57;12.50;99.90
35970;DHT22;22448;51.298;6.430;2022-11-04T12:50:41;12.50;99.90
35970;DHT22;22448;51.298;6.430;2022-11-04T12:53:25;12.50;99.90
35970;DHT22;22448;51.298;6.430;2022-11-04T12:56:01;12.50;99.90
35970;DHT22;22448;51.298;6.430;2022-11-04T12:59:05;12.50;99.90
35970;DHT22;22448;51.298;6.430;2022-11-04T13:01:53;12.60;99.90
35970;DHT22;22448;51.298;6.430;2022-11-04T13:04:30;12.60;99.90
35970;DHT22;22448;51.298;6.430;2022-11-04T13:07:02;12.50;99.90
35970;DHT22;22448;51.298;6.430;2022-11-04T13:09:38;12.30;99.90
35970;DHT22;22448;51.298;6.430;2022-11-04T13:12:40;12.30;99.90
35970;DHT22;22448;51.298;6.430;2022-11-04T13:15:02;12.40;99.90
35970;DHT22;22448;51.298;6.430;2022-11-04T13:17:52;12.70;99.90
35970;DHT22;22448;51.298;6.430;2022-11-04T13:20:41;12.80;99.90
35970;DHT22;22448;51.298;6.430;2022-11-04T13:23:33;12.80;99.90
35970;DHT22;22448;51.298;6.430;2022-11-04T13:26:05;12.70;99.90
35970;DHT22;22448;51.298;6.430;2022-11-04T13:28:32;12.70;99.90
35970;DHT22;22448;51.298;6.430;2022-11-04T13:31:21;12.60;99.90
35970;DHT22;22448;51.298;6.430;2022-11-04T13:37:30;12.60;99.90
35970;DHT22;22448;51.298;6.430;2022-11-04T13:40:00;12.70;99.90
35970;DHT22;22448;51.298;6.430;2022-11-04T13:45:52;12.70;99.90
35970;DHT22;22448;51.298;6.430;2022-11-04T13:48:22;12.80;99.90
35970;DHT22;22448;51.298;6.430;2022-11-04T13:51:09;12.90;99.90
35970;DHT22;22448;51.298;6.430;2022-11-04T13:59:25;12.90;99.90
35970;DHT22;22448;51.298;6.430;2022-11-04T14:04:40;13.00;99.90
35970;DHT22;22448;51.298;6.430;2022-11-04T14:07:10;12.90;99.90
35970;DHT22;22448;51.298;6.430;2022-11-04T14:14:41;12.70;99.90
35970;DHT22;22448;51.298;6.430;2022-11-04T14:22:51;12.60;99.90
35970;DHT22;22448;51.298;6.430;2022-11-04T14:25:32;12.50;99.90
35970;DHT22;22448;51.298;6.430;2022-11-04T14:30:41;12.40;99.90
35970;DHT22;22448;51.298;6.430;2022-11-04T14:33:31;12.40;99.90
35970;DHT22;22448;51.298;6.430;2022-11-04T14:44:36;11.90;99.90
35970;DHT22;22448;51.298;6.430;2022-11-04T14:47:19;11.70;99.90
35970;DHT22;22448;51.298;6.430;2022-11-04T14:50:06;11.60;99.90
35970;DHT22;22448;51.298;6.430;2022-11-04T14:55:14;11.30;99.90
35970;DHT22;22448;51.298;6.430;2022-11-04T14:57:50;11.20;99.90
35970;DHT22;22448;51.298;6.430;2022-11-04T15:00:36;11.10;99.90
35970;DHT22;22448;51.298;6.430;2022-11-04T15:03:14;11.00;99.90
35970;DHT22;22448;51.298;6.430;2022-11-04T15:06:05;10.80;99.90
35970;DHT22;22448;51.298;6.430;2022-11-04T15:13:49;10.60;99.90
35970;DHT22;22448;51.298;6.430;2022-11-04T15:16:24;10.50;99.90
35970;DHT22;22448;51.298;6.430;2022-11-04T15:18:54;10.60;99.90
35970;DHT22;22448;51.298;6.430;2022-11-04T15:21:22;10.50;99.90
35970;DHT22;22448;51.298;6.430;2022-11-04T15:23:53;10.50;99.90
35970;DHT22;22448;51.298;6.430;2022-11-04T15:26:29;10.50;99.90
35970;DHT22;22448;51.298;6.430;2022-11-04T15:29:00;10.50;99.90
35970;DHT22;22448;51.298;6.430;2022-11-04T15:31:30;10.60;99.90
35970;DHT22;22448;51.298;6.430;2022-11-04T15:34:02;10.60;99.90
35970;DHT22;22448;51.298;6.430;2022-11-04T15:36:36;10.60;99.90
35970;DHT22;22448;51.298;6.430;2022-11-04T15:41:37;10.60;99.90
35970;DHT22;22448;51.298;6.430;2022-11-04T15:44:29;10.60;99.90
35970;DHT22;22448;51.298;6.430;2022-11-04T15:47:00;10.60;99.90
35970;DHT22;22448;51.298;6.430;2022-11-04T15:49:29;10.60;99.90
35970;DHT22;22448;51.298;6.430;2022-11-04T15:51:59;10.70;99.90
35970;DHT22;22448;51.298;6.430;2022-11-04T15:54:39;10.70;99.90
35970;DHT22;22448;51.298;6.430;2022-11-04T15:57:38;10.60;99.90
35970;DHT22;22448;51.298;6.430;2022-11-04T16:02:53;10.50;99.90
35970;DHT22;22448;51.298;6.430;2022-11-04T16:05:29;10.40;99.90
35970;DHT22;22448;51.298;6.430;2022-11-04T16:08:20;10.30;99.90
35970;DHT22;22448;51.298;6.430;2022-11-04T16:10:48;10.30;99.90
35970;DHT22;22448;51.298;6.430;2022-11-04T16:18:42;10.10;99.90
35970;DHT22;22448;51.298;6.430;2022-11-04T16:21:27;10.00;99.90
35970;DHT22;22448;51.298;6.430;2022-11-04T16:26:40;10.00;99.90
35970;DHT22;22448;51.298;6.430;2022-11-04T16:29:12;9.90;99.90
35970;DHT22;22448;51.298;6.430;2022-11-04T16:31:42;9.90;99.90
35970;DHT22;22448;51.298;6.430;2022-11-04T16:34:11;9.90;99.90
35970;DHT22;22448;51.298;6.430;2022-11-04T16:36:39;9.90;99.90
35970;DHT22;22448;51.298;6.430;2022-11-04T16:39:06;9.90;99.90
35970;DHT22;22448;51.298;6.430;2022-11-04T16:41:36;10.00;99.90
35970;DHT22;22448;51.298;6.430;2022-11-04T16:44:14;9.90;99.90
35970;DHT22;22448;51.298;6.430;2022-11-04T16:46:43;10.00;99.90
35970;DHT22;22448;51.298;6.430;2022-11-04T16:49:14;9.90;99.90
35970;DHT22;22448;51.298;6.430;2022-11-04T16:51:41;10.00;99.90
35970;DHT22;22448;51.298;6.430;2022-11-04T16:54:08;9.90;99.90
35970;DHT22;22448;51.298;6.430;2022-11-04T16:56:37;10.00;99.90
35970;DHT22;22448;51.298;6.430;2022-11-04T16:59:04;10.00;99.90
35970;DHT22;22448;51.298;6.430;2022-11-04T17:01:31;10.00;99.90
35970;DHT22;22448;51.298;6.430;2022-11-04T17:03:58;10.00;99.90
35970;DHT22;22448;51.298;6.430;2022-11-04T17:06:24;10.00;99.90
35970;DHT22;22448;51.298;6.430;2022-11-04T17:08:52;10.00;99.90
35970;DHT22;22448;51.298;6.430;2022-11-04T17:11:18;9.90;99.90
35970;DHT22;22448;51.298;6.430;2022-11-04T17:13:45;10.00;99.90
35970;DHT22;22448;51.298;6.430;2022-11-04T17:16:13;9.90;99.90
35970;DHT22;22448;51.298;6.430;2022-11-04T17:18:40;9.90;99.90
35970;DHT22;22448;51.298;6.430;2022-11-04T17:21:10;9.90;99.90
35970;DHT22;22448;51.298;6.430;2022-11-04T17:23:37;9.90;99.90
35970;DHT22;22448;51.298;6.430;2022-11-04T17:26:04;9.90;99.90
35970;DHT22;22448;51.298;6.430;2022-11-04T17:28:31;10.00;99.90
35970;DHT22;22448;51.298;6.430;2022-11-04T17:31:00;9.90;99.90
35970;DHT22;22448;51.298;6.430;2022-11-04T17:33:28;10.00;99.90
35970;DHT22;22448;51.298;6.430;2022-11-04T17:35:55;9.90;99.90
35970;DHT22;22448;51.298;6.430;2022-11-04T17:38:22;10.00;99.90
35970;DHT22;22448;51.298;6.430;2022-11-04T17:40:49;10.00;99.90
35970;DHT22;22448;51.298;6.430;2022-11-04T17:43:34;9.90;99.90
35970;DHT22;22448;51.298;6.430;2022-11-04T17:46:20;9.90;99.90
35970;DHT22;22448;51.298;6.430;2022-11-04T17:49:09;10.00;99.90
35970;DHT22;22448;51.298;6.430;2022-11-04T17:51:38;9.90;99.90
35970;DHT22;22448;51.298;6.430;2022-11-04T17:54:05;9.90;99.90
35970;DHT22;22448;51.298;6.430;2022-11-04T17:56:32;9.90;99.90
35970;DHT22;22448;51.298;6.430;2022-11-04T17:59:00;9.90;99.90
35970;DHT22;22448;51.298;6.430;2022-11-04T18:01:27;9.90;99.90
35970;DHT22;22448;51.298;6.430;2022-11-04T18:03:54;9.90;99.90
35970;DHT22;22448;51.298;6.430;2022-11-04T18:06:21;9.80;99.90
35970;DHT22;22448;51.298;6.430;2022-11-04T18:08:51;9.80;99.90
35970;DHT22;22448;51.298;6.430;2022-11-04T18:11:20;9.80;99.90
35970;DHT22;22448;51.298;6.430;2022-11-04T18:14:05;9.80;99.90
35970;DHT22;22448;51.298;6.430;2022-11-04T18:16:43;9.70;99.90
35970;DHT22;22448;51.298;6.430;2022-11-04T18:19:11;9.70;99.90
35970;DHT22;22448;51.298;6.430;2022-11-04T18:21:37;9.70;99.90
35970;DHT22;22448;51.298;6.430;2022-11-04T18:24:05;9.70;99.90
35970;DHT22;22448;51.298;6.430;2022-11-04T18:26:31;9.60;99.90
35970;DHT22;22448;51.298;6.430;2022-11-04T18:28:58;9.60;99.90
35970;DHT22;22448;51.298;6.430;2022-11-04T18:31:31;9.70;99.90
35970;DHT22;22448;51.298;6.430;2022-11-04T18:34:00;9.70;99.90
35970;DHT22;22448;51.298;6.430;2022-11-04T18:36:29;9.70;99.90
35970;DHT22;22448;51.298;6.430;2022-11-04T18:38:56;9.60;99.90
35970;DHT22;22448;51.298;6.430;2022-11-04T18:41:23;9.70;99.90